createdAt,value
2018-11-02T00:01:26.997Z,10.20
2018-11-02T00:03:54.470Z,10.20
2018-11-02T00:06:23.488Z,10.20
2018-11-02T00:08:51.717Z,10.20
2018-11-02T00:11:19.183Z,10.10
2018-11-02T00:13:46.673Z,10.20
2018-11-02T00:16:14.150Z,10.00
2018-11-02T00:18:42.428Z,12.30
2018-11-02T00:21:09.971Z,12.10
2018-11-02T00:23:38.216Z,12.30
2018-11-02T00:26:05.678Z,12.10
2018-11-02T00:28:33.211Z,12.20
2018-11-02T00:31:01.433Z,12.00
2018-11-02T00:33:28.899Z,12.00
2018-11-02T00:35:56.375Z,12.10
2018-11-02T00:38:23.846Z,12.00
2018-11-02T00:40:51.333Z,11.80
2018-11-02T00:43:18.875Z,11.90
2018-11-02T00:45:46.475Z,11.70
2018-11-02T00:48:13.907Z,11.80
2018-11-02T00:50:42.160Z,11.50
2018-11-02T00:53:10.456Z,11.50
2018-11-02T00:55:38.081Z,11.40
2018-11-02T00:58:05.600Z,11.60
2018-11-02T01:00:33.058Z,11.60
2018-11-02T01:03:00.614Z,11.60
2018-11-02T01:05:28.184Z,11.30
2018-11-02T01:07:57.166Z,11.30
2018-11-02T01:10:25.304Z,11.30
2018-11-02T01:12:52.786Z,11.30
2018-11-02T01:15:20.236Z,11.40
2018-11-02T01:17:47.699Z,11.30
2018-11-02T01:20:15.165Z,11.30
2018-11-02T01:22:42.669Z,11.40
2018-11-02T01:25:10.219Z,11.20
2018-11-02T01:27:37.912Z,11.30
2018-11-02T01:30:05.417Z,11.20
2018-11-02T01:32:32.875Z,11.20
2018-11-02T01:35:00.381Z,11.30
2018-11-02T01:37:27.835Z,11.30
2018-11-02T01:39:55.292Z,11.10
2018-11-02T01:42:22.854Z,11.20
2018-11-02T01:44:50.311Z,11.20
2018-11-02T01:47:17.770Z,11.10
2018-11-02T01:49:45.559Z,11.00
2018-11-02T01:52:13.021Z,11.10
2018-11-02T01:54:40.482Z,11.00
2018-11-02T01:57:07.940Z,11.00
2018-11-02T01:59:35.414Z,11.00
2018-11-02T02:02:05.118Z,10.90
2018-11-02T02:04:32.584Z,10.90
2018-11-02T02:07:00.064Z,10.90
2018-11-02T02:09:27.604Z,10.90
2018-11-02T02:11:55.164Z,10.90
2018-11-02T02:14:22.742Z,10.90
2018-11-02T02:16:50.305Z,10.80
2018-11-02T02:19:18.068Z,10.80
2018-11-02T02:21:45.520Z,10.80
2018-11-02T02:24:12.983Z,10.80
2018-11-02T02:26:40.455Z,10.70
2018-11-02T02:29:07.903Z,10.70
2018-11-02T02:31:35.365Z,10.60
2018-11-02T02:34:02.946Z,10.60
2018-11-02T02:36:30.506Z,10.70
2018-11-02T02:38:57.963Z,10.70
2018-11-02T02:41:25.524Z,10.60
2018-11-02T02:43:52.993Z,10.60
2018-11-02T02:46:20.569Z,10.50
2018-11-02T02:48:48.048Z,10.50
2018-11-02T02:51:16.306Z,10.40
2018-11-02T02:53:43.783Z,10.30
2018-11-02T02:56:11.271Z,10.40
2018-11-02T02:58:39.476Z,10.30
2018-11-02T03:01:06.950Z,10.30
2018-11-02T03:03:34.427Z,10.20
2018-11-02T03:06:01.983Z,10.20
2018-11-02T03:08:29.553Z,10.20
2018-11-02T03:10:57.177Z,10.20
2018-11-02T03:13:24.564Z,10.10
2018-11-02T03:15:52.052Z,10.10
2018-11-02T03:18:19.496Z,10.00
2018-11-02T03:20:46.960Z,10.10
2018-11-02T03:23:14.424Z,10.00
2018-11-02T03:25:41.994Z,10.00
2018-11-02T03:28:09.455Z,10.00
2018-11-02T03:30:36.929Z,10.00
2018-11-02T03:33:04.396Z,10.00
2018-11-02T03:35:32.619Z,10.10
2018-11-02T03:38:00.645Z,10.00
2018-11-02T03:40:28.205Z,10.00
2018-11-02T03:42:56.427Z,10.10
2018-11-02T03:45:23.942Z,10.00
2018-11-02T03:47:51.411Z,10.10
2018-11-02T03:50:18.863Z,10.00
2018-11-02T03:52:46.415Z,10.00
2018-11-02T03:55:13.891Z,10.00
2018-11-02T03:57:41.369Z,10.10
2018-11-02T04:00:09.995Z,10.10
2018-11-02T04:02:37.457Z,10.00
2018-11-02T04:05:04.955Z,10.10
2018-11-02T04:07:32.419Z,10.20
2018-11-02T04:09:59.992Z,10.20
2018-11-02T04:12:27.465Z,10.30
2018-11-02T04:14:55.685Z,10.20
2018-11-02T04:17:23.148Z,10.10
2018-11-02T04:19:50.649Z,10.20
2018-11-02T04:22:18.211Z,10.20
2018-11-02T04:24:45.784Z,10.30
2018-11-02T04:27:13.243Z,10.20
2018-11-02T04:29:40.808Z,10.30
2018-11-02T04:32:08.275Z,10.30
2018-11-02T04:34:35.836Z,10.20
2018-11-02T04:37:04.820Z,10.30
2018-11-02T04:39:32.297Z,10.20
2018-11-02T04:41:59.845Z,10.30
2018-11-02T04:44:27.311Z,10.30
2018-11-02T04:46:54.777Z,10.30
2018-11-02T04:49:22.297Z,10.30
2018-11-02T04:51:49.754Z,10.30
2018-11-02T04:54:17.578Z,10.30
2018-11-02T04:56:45.032Z,10.30
2018-11-02T04:59:14.005Z,10.30
2018-11-02T05:01:42.900Z,10.20
2018-11-02T05:04:10.393Z,10.30
2018-11-02T05:06:37.863Z,10.20
2018-11-02T05:09:05.617Z,10.30
2018-11-02T05:11:33.292Z,10.20
2018-11-02T05:14:00.635Z,10.20
2018-11-02T05:16:28.111Z,10.30
2018-11-02T05:18:55.571Z,10.30
2018-11-02T05:21:23.164Z,10.20
2018-11-02T05:23:50.594Z,10.30
2018-11-02T05:26:18.147Z,10.30
2018-11-02T05:28:45.609Z,10.20
2018-11-02T05:31:13.082Z,10.30
2018-11-02T05:33:40.535Z,10.20
2018-11-02T05:36:07.992Z,10.20
2018-11-02T05:38:35.701Z,10.20
2018-11-02T05:41:03.745Z,10.20
2018-11-02T05:43:31.657Z,10.20
2018-11-02T05:45:59.892Z,10.20
2018-11-02T05:48:27.459Z,10.00
2018-11-02T05:50:55.018Z,10.10
2018-11-02T05:53:22.589Z,10.00
2018-11-02T05:55:50.051Z,10.10
2018-11-02T05:58:17.614Z,10.00
2018-11-02T06:00:45.170Z,10.10
2018-11-02T06:03:12.627Z,10.10
2018-11-02T06:05:40.091Z,10.10
2018-11-02T06:08:07.711Z,10.00
2018-11-02T06:10:35.125Z,10.10
2018-11-02T06:13:02.579Z,10.10
2018-11-02T06:15:30.048Z,10.10
2018-11-02T06:17:57.619Z,10.10
2018-11-02T06:20:25.085Z,10.10
2018-11-02T06:22:52.541Z,10.10
2018-11-02T06:25:20.018Z,10.00
2018-11-02T06:27:47.709Z,10.10
2018-11-02T06:30:15.172Z,10.00
2018-11-02T06:32:42.843Z,10.00
2018-11-02T06:35:10.576Z,10.00
2018-11-02T06:37:38.832Z,9.90
2018-11-02T06:40:06.330Z,9.90
2018-11-02T06:42:34.577Z,10.10
2018-11-02T06:45:02.129Z,10.00
2018-11-02T06:47:29.499Z,10.00
2018-11-02T06:49:56.963Z,9.90
2018-11-02T06:52:24.446Z,10.00
2018-11-02T06:54:51.916Z,10.10
2018-11-02T06:57:20.156Z,10.00
2018-11-02T06:59:48.059Z,9.90
2018-11-02T07:02:15.103Z,9.90
2018-11-02T07:04:43.335Z,10.00
2018-11-02T07:07:10.856Z,9.90
2018-11-02T07:09:38.267Z,10.00
2018-11-02T07:12:05.768Z,10.00
2018-11-02T07:14:33.238Z,10.00
2018-11-02T07:17:00.704Z,10.10
2018-11-02T07:19:28.160Z,10.00
2018-11-02T07:21:55.622Z,10.10
2018-11-02T07:24:23.176Z,10.00
2018-11-02T07:26:50.644Z,10.20
2018-11-02T07:29:18.234Z,10.20
2018-11-02T07:31:46.463Z,10.40
2018-11-02T07:34:13.954Z,10.30
2018-11-02T07:36:41.387Z,10.40
2018-11-02T07:39:08.852Z,10.50
2018-11-02T07:41:36.450Z,10.50
2018-11-02T07:44:04.687Z,10.60
2018-11-02T07:46:32.173Z,10.50
2018-11-02T07:48:59.651Z,10.60
2018-11-02T07:51:27.887Z,10.70
2018-11-02T07:53:55.347Z,10.60
2018-11-02T07:56:22.844Z,10.70
2018-11-02T07:58:50.405Z,10.70
2018-11-02T08:01:17.970Z,10.80
2018-11-02T08:03:45.533Z,10.80
2018-11-02T08:06:13.102Z,10.90
2018-11-02T08:08:40.559Z,10.80
2018-11-02T08:11:08.044Z,10.80
2018-11-02T08:13:35.575Z,10.80
2018-11-02T08:16:03.957Z,10.90
2018-11-02T08:18:31.529Z,10.90
2018-11-02T08:20:58.979Z,10.90
2018-11-02T08:23:26.450Z,11.00
2018-11-02T08:25:53.920Z,11.00
2018-11-02T08:28:21.384Z,11.00
2018-11-02T08:30:48.851Z,11.00
2018-11-02T08:33:16.406Z,10.90
2018-11-02T08:35:43.976Z,11.00
2018-11-02T08:38:11.542Z,10.90
2018-11-02T08:40:38.995Z,10.90
2018-11-02T08:43:06.461Z,10.90
2018-11-02T08:45:33.960Z,10.90
2018-11-02T08:48:02.181Z,10.90
2018-11-02T08:50:29.677Z,10.80
2018-11-02T08:52:57.131Z,10.90
2018-11-02T08:55:24.601Z,11.00
2018-11-02T08:57:52.115Z,10.90
2018-11-02T09:00:19.741Z,10.80
2018-11-02T09:02:47.385Z,10.80
2018-11-02T09:05:15.076Z,10.90
2018-11-02T09:07:42.508Z,10.90
2018-11-02T09:10:09.967Z,10.90
2018-11-02T09:12:37.530Z,10.80
2018-11-02T09:15:05.819Z,10.90
2018-11-02T09:17:34.064Z,11.00
2018-11-02T09:20:01.516Z,11.00
2018-11-02T09:22:28.975Z,10.90
2018-11-02T09:24:56.446Z,10.80
2018-11-02T09:27:23.984Z,10.90
2018-11-02T09:29:51.389Z,10.70
2018-11-02T09:32:18.877Z,10.70
2018-11-02T09:34:46.348Z,10.50
2018-11-02T09:37:14.608Z,10.70
2018-11-02T09:39:42.128Z,10.60
2018-11-02T09:42:09.587Z,10.80
2018-11-02T09:44:37.092Z,10.90
2018-11-02T09:47:04.653Z,10.70
2018-11-02T09:49:32.220Z,10.70
2018-11-02T09:51:59.832Z,10.80
2018-11-02T09:54:27.260Z,10.90
2018-11-02T09:56:54.724Z,10.90
2018-11-02T09:59:22.275Z,10.80
2018-11-02T10:01:49.771Z,10.80
2018-11-02T10:04:18.005Z,10.20
2018-11-02T10:06:45.465Z,10.20
2018-11-02T10:09:13.065Z,10.30
2018-11-02T10:11:40.404Z,10.20
2018-11-02T10:14:07.866Z,10.20
2018-11-02T10:16:35.341Z,10.20
2018-11-02T10:19:05.227Z,10.00
2018-11-02T10:21:32.803Z,10.00
2018-11-02T10:24:00.479Z,10.00
2018-11-02T10:26:27.834Z,10.00
2018-11-02T10:28:55.307Z,10.00
2018-11-02T10:31:22.855Z,10.30
2018-11-02T10:33:50.423Z,10.80
2018-11-02T10:36:17.988Z,11.20
2018-11-02T10:38:46.959Z,11.50
2018-11-02T10:41:14.418Z,11.50
2018-11-02T10:43:41.884Z,11.50
2018-11-02T10:46:09.357Z,11.40
2018-11-02T10:48:36.812Z,11.30
2018-11-02T10:51:04.339Z,11.00
2018-11-02T10:53:31.748Z,10.80
2018-11-02T10:55:59.204Z,10.60
2018-11-02T10:58:26.672Z,10.50
2018-11-02T11:00:54.212Z,10.30
2018-11-02T11:03:21.583Z,10.30
2018-11-02T11:05:49.047Z,10.20
2018-11-02T11:08:16.515Z,10.00
2018-11-02T11:10:43.985Z,10.00
2018-11-02T11:13:12.014Z,10.10
2018-11-02T11:15:39.028Z,10.20
2018-11-02T11:18:06.583Z,10.20
2018-11-02T11:20:34.051Z,10.30
2018-11-02T11:23:01.510Z,10.30
2018-11-02T11:25:28.979Z,10.30
2018-11-02T11:27:56.523Z,10.30
2018-11-02T11:30:24.093Z,10.30
2018-11-02T11:32:51.659Z,10.30
2018-11-02T11:35:19.429Z,10.20
2018-11-02T11:37:46.884Z,10.10
2018-11-02T11:40:14.449Z,10.10
2018-11-02T11:42:42.012Z,10.00
2018-11-02T11:45:09.573Z,10.00
2018-11-02T11:47:37.135Z,10.10
2018-11-02T11:50:04.704Z,10.00
2018-11-02T11:52:32.947Z,10.00
2018-11-02T11:55:00.455Z,10.00
2018-11-02T11:57:27.918Z,10.00
2018-11-02T11:59:55.380Z,10.00
2018-11-02T12:02:23.265Z,10.00
2018-11-02T12:04:50.765Z,9.90
2018-11-02T12:07:19.672Z,10.00
2018-11-02T12:09:47.134Z,10.00
2018-11-02T12:12:14.585Z,10.10
2018-11-02T12:14:42.044Z,10.20
2018-11-02T12:17:09.511Z,10.20
2018-11-02T12:19:36.971Z,10.30
2018-11-02T12:22:04.431Z,10.30
2018-11-02T12:24:31.892Z,10.40
2018-11-02T12:26:59.504Z,10.40
2018-11-02T12:29:27.731Z,10.30
2018-11-02T12:31:55.192Z,10.30
2018-11-02T12:34:22.667Z,10.20
2018-11-02T12:36:50.186Z,10.20
2018-11-02T12:39:17.591Z,10.20
2018-11-02T12:41:45.053Z,10.20
2018-11-02T12:44:12.605Z,10.10
2018-11-02T12:46:40.039Z,10.00
2018-11-02T12:49:08.472Z,10.00
2018-11-02T12:51:35.885Z,10.00
2018-11-02T12:54:04.206Z,9.90
2018-11-02T12:56:31.672Z,9.90
2018-11-02T12:58:59.145Z,10.00
2018-11-02T13:01:26.624Z,10.00
2018-11-02T13:03:54.194Z,10.00
2018-11-02T13:06:21.661Z,10.10
2018-11-02T13:08:49.138Z,10.00
2018-11-02T13:11:17.395Z,10.00
2018-11-02T13:13:44.965Z,10.00
2018-11-02T13:16:12.669Z,9.90
2018-11-02T13:18:40.043Z,9.90
2018-11-02T13:21:08.236Z,9.80
2018-11-02T13:23:35.704Z,9.90
2018-11-02T13:26:04.535Z,9.90
2018-11-02T13:28:31.877Z,9.90
2018-11-02T13:30:59.512Z,10.00
2018-11-02T13:33:26.924Z,10.10
2018-11-02T13:35:55.179Z,10.20
2018-11-02T13:38:22.635Z,10.20
2018-11-02T13:40:50.107Z,10.20
2018-11-02T13:43:17.690Z,10.30
2018-11-02T13:45:45.131Z,10.20
2018-11-02T13:48:12.696Z,10.10
2018-11-02T13:50:40.153Z,10.00
2018-11-02T13:53:07.717Z,9.90
2018-11-02T13:55:35.180Z,9.90
2018-11-02T13:58:02.653Z,9.90
2018-11-02T14:00:30.131Z,9.90
2018-11-02T14:02:58.390Z,10.00
2018-11-02T14:05:25.855Z,10.00
2018-11-02T14:07:53.418Z,10.00
2018-11-02T14:10:20.885Z,10.00
2018-11-02T14:12:48.369Z,10.00
2018-11-02T14:15:16.600Z,9.90
2018-11-02T14:17:44.180Z,9.90
2018-11-02T14:20:11.638Z,9.90
2018-11-02T14:22:39.112Z,9.90
2018-11-02T14:25:06.671Z,9.90
2018-11-02T14:27:34.131Z,9.90
2018-11-02T14:30:01.718Z,10.00
2018-11-02T14:32:29.452Z,10.00
2018-11-02T14:34:56.924Z,10.00
2018-11-02T14:37:24.487Z,10.00
2018-11-02T14:39:51.954Z,9.70
2018-11-02T14:42:19.408Z,9.10
2018-11-02T14:44:46.878Z,8.70
2018-11-02T14:47:14.323Z,8.50
2018-11-02T14:49:41.788Z,8.40
2018-11-02T14:52:09.263Z,8.30
2018-11-02T14:54:36.738Z,8.30
2018-11-02T14:57:04.283Z,8.30
2018-11-02T14:59:31.816Z,8.40
2018-11-02T15:01:59.268Z,8.40
2018-11-02T15:04:26.774Z,8.60
2018-11-02T15:06:55.004Z,8.60
2018-11-02T15:09:22.452Z,8.60
2018-11-02T15:11:50.683Z,8.80
2018-11-02T15:14:19.009Z,8.80
2018-11-02T15:16:47.255Z,8.90
2018-11-02T15:19:14.812Z,8.90
2018-11-02T15:21:42.281Z,8.90
2018-11-02T15:24:09.850Z,8.90
2018-11-02T15:26:37.434Z,8.80
2018-11-02T15:29:04.867Z,8.80
2018-11-02T15:31:32.336Z,8.80
2018-11-02T15:33:59.788Z,8.70
2018-11-02T15:36:27.560Z,8.60
2018-11-02T15:38:55.017Z,8.40
2018-11-02T15:41:22.469Z,8.30
2018-11-02T15:43:49.931Z,8.20
2018-11-02T15:46:17.428Z,8.30
2018-11-02T15:48:44.888Z,8.00
2018-11-02T15:51:12.349Z,8.10
2018-11-02T15:53:39.808Z,7.90
2018-11-02T15:56:07.354Z,8.00
2018-11-02T15:58:34.819Z,8.00
2018-11-02T16:01:02.393Z,8.10
2018-11-02T16:03:29.843Z,8.10
2018-11-02T16:05:57.422Z,8.10
2018-11-02T16:08:24.980Z,7.90
2018-11-02T16:10:53.970Z,8.00
2018-11-02T16:13:21.423Z,8.00
2018-11-02T16:15:48.914Z,8.10
2018-11-02T16:18:16.357Z,7.90
2018-11-02T16:20:43.811Z,8.30
2018-11-02T16:23:11.287Z,8.10
2018-11-02T16:25:38.835Z,8.20
2018-11-02T16:28:06.404Z,8.00
2018-11-02T16:30:33.978Z,8.00
2018-11-02T16:33:01.435Z,7.90
2018-11-02T16:35:28.879Z,8.10
2018-11-02T16:37:56.991Z,8.30
2018-11-02T16:40:24.459Z,8.40
2018-11-02T16:42:52.679Z,8.50
2018-11-02T16:45:20.131Z,8.50
2018-11-02T16:47:47.619Z,8.50
2018-11-02T16:50:15.126Z,8.50
2018-11-02T16:52:42.583Z,8.20
2018-11-02T16:55:10.138Z,8.10
2018-11-02T16:57:37.874Z,8.00
2018-11-02T17:00:05.189Z,8.00
2018-11-02T17:02:33.452Z,7.90
2018-11-02T17:05:01.114Z,7.90
2018-11-02T17:07:29.585Z,8.40
2018-11-02T17:09:57.158Z,8.40
2018-11-02T17:12:24.770Z,8.20
2018-11-02T17:14:52.252Z,8.00
2018-11-02T17:17:19.734Z,7.90
2018-11-02T17:19:47.216Z,7.70
2018-11-02T17:22:14.770Z,7.60
2018-11-02T17:24:42.227Z,7.60
2018-11-02T17:27:09.711Z,7.40
2018-11-02T17:29:37.180Z,7.60
2018-11-02T17:32:05.440Z,7.50
2018-11-02T17:34:34.032Z,7.70
2018-11-02T17:37:01.584Z,7.70
2018-11-02T17:39:29.147Z,7.60
2018-11-02T17:41:56.622Z,7.60
2018-11-02T17:44:24.077Z,7.50
2018-11-02T17:46:53.063Z,7.50
2018-11-02T17:49:20.524Z,7.50
2018-11-02T17:51:48.004Z,7.50
2018-11-02T17:54:15.477Z,7.60
2018-11-02T17:56:43.740Z,7.60
2018-11-02T17:59:11.328Z,7.60
2018-11-02T18:01:39.547Z,7.20
2018-11-02T18:04:07.040Z,7.20
2018-11-02T18:06:34.607Z,7.30
2018-11-02T18:09:02.129Z,7.40
2018-11-02T18:11:29.646Z,7.30
2018-11-02T18:13:57.185Z,7.10
2018-11-02T18:16:24.644Z,7.20
2018-11-02T18:18:52.124Z,7.40
2018-11-02T18:21:19.595Z,7.30
2018-11-02T18:23:47.874Z,7.30
2018-11-02T18:26:16.116Z,7.30
2018-11-02T18:28:43.619Z,7.30
2018-11-02T18:31:11.184Z,7.40
2018-11-02T18:33:38.665Z,7.30
2018-11-02T18:36:06.195Z,7.40
2018-11-02T18:38:33.667Z,7.40
2018-11-02T18:41:01.159Z,7.40
2018-11-02T18:43:28.637Z,7.30
2018-11-02T18:45:56.110Z,7.30
2018-11-02T18:48:23.686Z,7.30
2018-11-02T18:50:51.044Z,7.30
2018-11-02T18:53:18.526Z,7.20
2018-11-02T18:55:45.996Z,7.20
2018-11-02T18:58:14.995Z,7.30
2018-11-02T19:00:42.445Z,7.30
2018-11-02T19:03:10.035Z,7.30
2018-11-02T19:05:37.647Z,7.20
2018-11-02T19:08:05.059Z,7.20
2018-11-02T19:10:33.328Z,7.20
2018-11-02T19:13:00.802Z,7.20
2018-11-02T19:15:29.043Z,7.10
2018-11-02T19:17:56.504Z,7.10
2018-11-02T19:20:24.335Z,7.20
2018-11-02T19:22:52.562Z,7.40
2018-11-02T19:25:20.024Z,7.40
2018-11-02T19:27:47.684Z,7.30
2018-11-02T19:30:15.884Z,7.30
2018-11-02T19:32:43.353Z,7.20
2018-11-02T19:35:10.881Z,7.30
2018-11-02T19:37:39.056Z,7.30
2018-11-02T19:40:06.513Z,7.30
2018-11-02T19:42:33.982Z,7.20
2018-11-02T19:45:01.787Z,7.20
2018-11-02T19:47:29.303Z,7.70
2018-11-02T19:49:56.763Z,7.50
2018-11-02T19:52:24.239Z,7.20
2018-11-02T19:54:51.712Z,7.30
2018-11-02T19:57:19.305Z,7.20
2018-11-02T19:59:47.009Z,7.40
2018-11-02T20:02:14.435Z,7.20
2018-11-02T20:04:41.915Z,7.10
2018-11-02T20:07:10.136Z,7.10
2018-11-02T20:09:37.644Z,7.10
2018-11-02T20:12:05.190Z,7.10
2018-11-02T20:20:19.660Z,7.20
2018-11-02T20:22:47.233Z,7.30
2018-11-02T20:25:14.732Z,7.10
2018-11-02T20:27:42.204Z,7.20
2018-11-02T20:30:09.718Z,7.20
2018-11-02T20:32:37.187Z,7.20
2018-11-02T20:35:04.664Z,7.30
2018-11-02T20:37:32.913Z,7.40
2018-11-02T20:40:00.488Z,7.40
2018-11-02T20:42:35.775Z,7.40
2018-11-02T20:45:03.857Z,7.30
2018-11-02T20:47:31.312Z,7.40
2018-11-02T20:49:58.907Z,7.40
2018-11-02T20:52:26.396Z,7.50
2018-11-02T20:54:54.662Z,7.40
2018-11-02T20:57:22.977Z,7.30
2018-11-02T20:59:51.230Z,7.40
2018-11-02T21:02:18.684Z,7.40
2018-11-02T21:04:46.152Z,7.40
2018-11-02T21:07:13.660Z,7.40
2018-11-02T21:09:41.337Z,7.40
2018-11-02T21:12:08.756Z,7.50
2018-11-02T21:14:37.149Z,7.30
2018-11-02T21:17:04.518Z,7.30
2018-11-02T21:19:31.953Z,7.30
2018-11-02T21:22:00.311Z,7.30
2018-11-02T21:24:27.671Z,7.30
2018-11-02T21:26:55.137Z,7.30
2018-11-02T21:29:22.707Z,7.30
2018-11-02T21:31:50.204Z,7.30
2018-11-02T21:34:18.429Z,7.30
2018-11-02T21:36:45.902Z,7.30
2018-11-02T21:39:13.361Z,7.30
2018-11-02T21:41:40.812Z,7.30
2018-11-02T21:44:08.339Z,7.30
2018-11-02T21:46:35.826Z,7.30
2018-11-02T21:49:03.961Z,7.30
2018-11-02T21:51:32.243Z,7.20
2018-11-02T21:53:59.731Z,7.20
2018-11-02T21:56:27.257Z,7.20
2018-11-02T21:58:54.710Z,7.20
2018-11-02T22:01:22.185Z,7.20
2018-11-02T22:03:49.642Z,7.20
2018-11-02T22:06:17.103Z,7.20
2018-11-02T22:08:44.578Z,7.20
2018-11-02T22:11:12.879Z,7.10
2018-11-02T22:13:41.095Z,7.10
2018-11-02T22:16:08.605Z,7.10
2018-11-02T22:18:36.914Z,7.00
2018-11-02T22:21:05.105Z,7.00
2018-11-02T22:23:32.638Z,7.00
2018-11-02T22:26:00.892Z,7.00
2018-11-02T22:28:28.451Z,7.00
2018-11-02T22:30:56.008Z,7.00
2018-11-02T22:33:23.458Z,7.00
2018-11-02T22:35:50.937Z,6.90
2018-11-02T22:38:18.423Z,7.00
2018-11-02T22:40:46.686Z,6.90
2018-11-02T22:43:14.225Z,6.90
2018-11-02T22:45:41.720Z,6.80
2018-11-02T22:48:09.191Z,6.90
2018-11-02T22:50:37.472Z,7.00
2018-11-02T22:53:05.701Z,6.90
2018-11-02T22:55:33.180Z,6.90
2018-11-02T22:58:00.679Z,6.80
2018-11-02T23:00:28.956Z,6.90
2018-11-02T23:02:57.232Z,6.80
2018-11-02T23:05:25.484Z,6.90
2018-11-02T23:07:53.068Z,6.90
2018-11-02T23:10:21.295Z,6.70
2018-11-02T23:12:48.802Z,6.70
2018-11-02T23:15:16.278Z,6.60
2018-11-02T23:17:44.516Z,6.50
2018-11-02T23:20:11.997Z,6.50
2018-11-02T23:22:39.567Z,6.50
2018-11-02T23:25:07.125Z,6.50
2018-11-02T23:27:34.713Z,6.50
2018-11-02T23:30:02.261Z,6.50
2018-11-02T23:32:30.420Z,6.60
2018-11-02T23:34:58.447Z,6.60
2018-11-02T23:37:26.700Z,6.30
2018-11-02T23:39:54.168Z,6.30
2018-11-02T23:42:22.404Z,6.30
2018-11-02T23:44:49.911Z,6.20
2018-11-02T23:47:17.360Z,6.20
2018-11-02T23:49:44.920Z,6.20
2018-11-02T23:52:12.379Z,6.30
2018-11-02T23:54:40.729Z,6.20
2018-11-02T23:57:08.195Z,6.10
2018-11-02T23:59:35.669Z,6.20
